Time;durP1;ratioP1;P1;durP2;ratioP2;P2;SDS_P1;SDS_P2;PMS_P1;PMS_P2;Temp;Humidity;BMP_temperature;BMP_pressure;BME280_temperature;BME280_humidity;BME280_pressure;Samples;Min_cycle;Max_cycle;Signal;HPM_P1;HPM_P2
2021/12/13 00:01:12;;;;;;;5.18;3.53;;;;;;;;;;5034524;28;20419;-75
2021/12/13 00:03:49;;;;;;;5.97;4.10;;;;;;;;;;5035383;28;20045;-76
2021/12/13 00:06:19;;;;;;;8.43;3.70;;;;;;;;;;5052979;28;20052;-75
2021/12/13 00:08:49;;;;;;;9.82;3.90;;;;;;;;;;5035025;28;20139;-75
2021/12/13 00:11:18;;;;;;;5.72;3.60;;;;;;;;;;5034609;28;20077;-78
2021/12/13 00:13:52;;;;;;;5.55;3.63;;;;;;;;;;5035212;28;20041;-76
2021/12/13 00:16:29;;;;;;;8.05;3.40;;;;;;;;;;5052935;28;20404;-78
2021/12/13 00:18:59;;;;;;;7.60;3.33;;;;;;;;;;5052381;28;20120;-76
2021/12/13 00:21:33;;;;;;;5.45;3.78;;;;;;;;;;5035280;28;20052;-78
2021/12/13 00:24:03;;;;;;;5.53;3.33;;;;;;;;;;5034666;28;20041;-75
2021/12/13 00:26:44;;;;;;;6.50;3.50;;;;;;;;;;5035074;28;20412;-75
2021/12/13 00:29:17;;;;;;;8.50;3.70;;;;;;;;;;5035262;28;20471;-78
2021/12/13 00:31:58;;;;;;;5.68;3.75;;;;;;;;;;5034829;28;20047;-76
2021/12/13 00:34:28;;;;;;;7.30;3.95;;;;;;;;;;5035735;28;20045;-80
2021/12/13 00:37:06;;;;;;;7.45;3.90;;;;;;;;;;5035171;28;20114;-79
2021/12/13 00:40:02;;;;;;;6.80;3.28;;;;;;;;;;5035566;28;20127;-77
2021/12/13 00:42:34;;;;;;;9.13;3.80;;;;;;;;;;5034799;28;20124;-75
2021/12/13 00:45:05;;;;;;;6.97;3.90;;;;;;;;;;5053254;28;20124;-80
2021/12/13 00:47:33;;;;;;;5.72;3.90;;;;;;;;;;5034920;28;20275;-76
2021/12/13 00:50:24;;;;;;;6.65;3.83;;;;;;;;;;5034619;28;20410;-80
2021/12/13 00:52:52;;;;;;;5.10;3.58;;;;;;;;;;5009795;28;20075;-80
2021/12/13 00:55:24;;;;;;;7.20;4.00;;;;;;;;;;5052609;28;20049;-75
2021/12/13 00:58:06;;;;;;;10.15;4.28;;;;;;;;;;5052790;28;20037;-75
2021/12/13 01:00:40;;;;;;;7.10;3.92;;;;;;;;;;5034705;28;20049;-76
2021/12/13 01:03:12;;;;;;;5.57;3.35;;;;;;;;;;5034976;28;20045;-78
2021/12/13 01:05:58;;;;;;;6.43;4.30;;;;;;;;;;5034884;28;20070;-76
2021/12/13 01:08:45;;;;;;;8.88;4.10;;;;;;;;;;5052617;28;20128;-77
2021/12/13 01:11:13;;;;;;;5.38;3.45;;;;;;;;;;5034583;28;20053;-78
2021/12/13 01:13:48;;;;;;;5.20;3.45;;;;;;;;;;5052963;28;20044;-79
2021/12/13 01:19:24;;;;;;;5.97;3.25;;;;;;;;;;5052299;28;20041;-76
2021/12/13 01:22:02;;;;;;;4.03;2.80;;;;;;;;;;5052358;28;20041;-75
2021/12/13 01:27:35;;;;;;;3.10;2.50;;;;;;;;;;5052511;28;20041;-75
2021/12/13 01:30:05;;;;;;;7.45;2.70;;;;;;;;;;5034897;28;20116;-80
2021/12/13 01:32:37;;;;;;;4.20;2.53;;;;;;;;;;5052561;28;20044;-81
2021/12/13 01:35:10;;;;;;;6.40;2.35;;;;;;;;;;5035035;28;20135;-75
2021/12/13 01:37:38;;;;;;;5.28;2.40;;;;;;;;;;5037011;28;20049;-75
2021/12/13 01:40:12;;;;;;;3.78;2.05;;;;;;;;;;5037787;28;20079;-76
2021/12/13 01:42:40;;;;;;;3.88;2.40;;;;;;;;;;5037761;28;20057;-80
2021/12/13 01:45:10;;;;;;;5.43;2.47;;;;;;;;;;5055831;28;20041;-75
2021/12/13 01:47:41;;;;;;;3.47;2.05;;;;;;;;;;5056054;28;20484;-76
2021/12/13 01:50:16;;;;;;;5.60;2.30;;;;;;;;;;5055486;28;20053;-77
2021/12/13 01:52:44;;;;;;;4.45;2.20;;;;;;;;;;5038380;28;20132;-76
2021/12/13 01:55:20;;;;;;;3.90;2.00;;;;;;;;;;5037801;28;20480;-81
2021/12/13 01:57:56;;;;;;;2.97;1.75;;;;;;;;;;5033199;28;20041;-80
2021/12/13 02:01:09;;;;;;;4.45;2.22;;;;;;;;;;5037416;28;20037;-75
2021/12/13 02:03:52;;;;;;;2.28;1.70;;;;;;;;;;5034801;28;20474;-81
2021/12/13 02:06:26;;;;;;;4.35;1.98;;;;;;;;;;5055596;28;20068;-78
2021/12/13 02:08:55;;;;;;;6.50;2.40;;;;;;;;;;5055057;28;20492;-76
2021/12/13 02:11:25;;;;;;;4.78;2.42;;;;;;;;;;5055372;28;20110;-76
2021/12/13 02:14:06;;;;;;;4.32;2.15;;;;;;;;;;5037726;28;20056;-77
2021/12/13 02:19:24;;;;;;;4.80;2.08;;;;;;;;;;5054958;28;20492;-78
2021/12/13 02:22:03;;;;;;;4.63;2.20;;;;;;;;;;5054942;28;20123;-75
2021/12/13 02:24:30;;;;;;;4.80;2.00;;;;;;;;;;5054992;28;20047;-75
2021/12/13 02:26:59;;;;;;;3.95;2.42;;;;;;;;;;5054862;28;20408;-78
2021/12/13 02:29:35;;;;;;;4.00;1.95;;;;;;;;;;5055342;28;20045;-78
2021/12/13 02:32:09;;;;;;;4.35;2.28;;;;;;;;;;5054865;28;20072;-75
2021/12/13 02:34:38;;;;;;;3.28;2.15;;;;;;;;;;5037058;28;20041;-75
2021/12/13 02:37:06;;;;;;;4.32;2.55;;;;;;;;;;5037038;28;20460;-75
2021/12/13 02:39:37;;;;;;;5.07;2.67;;;;;;;;;;5054940;28;20045;-79
2021/12/13 02:42:06;;;;;;;3.22;2.60;;;;;;;;;;5054791;28;20045;-76
2021/12/13 02:44:38;;;;;;;3.42;2.25;;;;;;;;;;5033419;28;20077;-75
2021/12/13 02:47:08;;;;;;;4.13;2.10;;;;;;;;;;5050974;28;20487;-75
2021/12/13 02:49:39;;;;;;;6.32;2.58;;;;;;;;;;5036592;28;20061;-76
2021/12/13 02:52:08;;;;;;;4.93;2.47;;;;;;;;;;5033695;28;20044;-79
2021/12/13 02:54:41;;;;;;;3.25;2.33;;;;;;;;;;5020182;28;20140;-77
2021/12/13 02:57:11;;;;;;;;;;;;;;;;;;5037237;28;20045;-76
2021/12/13 02:59:40;;;;;;;3.65;2.42;;;;;;;;;;5033562;28;19953;-78
2021/12/13 03:02:13;;;;;;;2.63;2.03;;;;;;;;;;5033848;28;20075;-79
2021/12/13 03:04:41;;;;;;;4.20;2.25;;;;;;;;;;5037123;28;20127;-75
2021/12/13 03:07:14;;;;;;;2.85;2.30;;;;;;;;;;5054308;28;20056;-79
2021/12/13 03:09:44;;;;;;;4.55;2.50;;;;;;;;;;5054171;28;20464;-75
2021/12/13 03:12:16;;;;;;;5.82;2.50;;;;;;;;;;5020082;28;20041;-78
2021/12/13 03:15:03;;;;;;;4.95;2.35;;;;;;;;;;5036381;28;20041;-75
2021/12/13 03:17:37;;;;;;;2.72;2.40;;;;;;;;;;5036108;28;20120;-78
2021/12/13 03:20:04;;;;;;;;;;;;;;;;;;5036027;28;20051;-76
2021/12/13 03:22:50;;;;;;;5.68;2.20;;;;;;;;;;5036430;28;19928;-79
2021/12/13 03:25:38;;;;;;;3.15;2.13;;;;;;;;;;5054121;28;20044;-79
2021/12/13 03:28:36;;;;;;;6.88;2.60;;;;;;;;;;5006990;28;20053;-79
2021/12/13 03:31:04;;;;;;;3.65;2.45;;;;;;;;;;4967269;28;20054;-79
2021/12/13 03:33:40;;;;;;;3.67;2.58;;;;;;;;;;5036252;28;20045;-79
2021/12/13 03:36:14;;;;;;;4.25;2.40;;;;;;;;;;5036188;28;20044;-78
2021/12/13 03:38:45;;;;;;;6.00;2.83;;;;;;;;;;5035875;28;20048;-79
2021/12/13 03:41:15;;;;;;;6.25;4.10;;;;;;;;;;5036139;28;20041;-75
2021/12/13 03:43:46;;;;;;;24.35;16.35;;;;;;;;;;5035714;28;20492;-79
2021/12/13 03:46:15;;;;;;;35.03;23.02;;;;;;;;;;5053905;28;20392;-78
2021/12/13 03:48:44;;;;;;;36.15;25.63;;;;;;;;;;5035569;28;20045;-75
2021/12/13 03:51:15;;;;;;;33.70;23.08;;;;;;;;;;5035551;28;20049;-75
2021/12/13 03:53:44;;;;;;;26.52;18.10;;;;;;;;;;5053222;28;20048;-78
2021/12/13 03:56:15;;;;;;;30.10;17.85;;;;;;;;;;5035905;28;20476;-75
2021/12/13 03:58:48;;;;;;;33.67;18.95;;;;;;;;;;5035116;28;20452;-77
2021/12/13 04:01:18;;;;;;;27.27;15.98;;;;;;;;;;5035166;28;20132;-78
2021/12/13 04:03:48;;;;;;;23.35;13.75;;;;;;;;;;5019638;28;20049;-79
2021/12/13 04:06:16;;;;;;;23.20;12.05;;;;;;;;;;5035645;28;20064;-75
2021/12/13 04:08:49;;;;;;;19.05;9.73;;;;;;;;;;5052959;28;20049;-78
2021/12/13 04:11:17;;;;;;;15.00;8.15;;;;;;;;;;5053086;28;20041;-75
2021/12/13 04:13:57;;;;;;;9.43;5.40;;;;;;;;;;5035635;28;20041;-75
2021/12/13 04:16:34;;;;;;;11.38;5.03;;;;;;;;;;5019122;28;20070;-78
2021/12/13 04:19:13;;;;;;;14.85;4.43;;;;;;;;;;5034653;28;20447;-78
2021/12/13 04:21:44;;;;;;;12.15;5.38;;;;;;;;;;5053488;28;20041;-75
2021/12/13 04:24:22;;;;;;;15.25;7.47;;;;;;;;;;5034998;28;20080;-76
2021/12/13 04:26:51;;;;;;;7.88;5.43;;;;;;;;;;5018891;28;20076;-78
2021/12/13 04:29:22;;;;;;;10.52;6.20;;;;;;;;;;5035770;28;20124;-75
2021/12/13 04:31:50;;;;;;;8.57;4.85;;;;;;;;;;5052963;28;20041;-75
2021/12/13 04:34:25;;;;;;;11.35;4.72;;;;;;;;;;5034885;28;20045;-75
2021/12/13 04:37:15;;;;;;;8.15;4.43;;;;;;;;;;5053062;28;20108;-76
2021/12/13 04:39:44;;;;;;;8.43;5.07;;;;;;;;;;5035354;28;20048;-78
2021/12/13 04:42:16;;;;;;;6.22;3.88;;;;;;;;;;5035103;28;20052;-79
2021/12/13 04:44:49;;;;;;;7.68;3.55;;;;;;;;;;5052620;28;20071;-75
2021/12/13 04:47:19;;;;;;;6.45;3.45;;;;;;;;;;5035031;28;20049;-75
2021/12/13 04:49:52;;;;;;;6.43;2.90;;;;;;;;;;5035048;28;20087;-75
2021/12/13 04:52:21;;;;;;;5.15;2.65;;;;;;;;;;5034707;28;20131;-75
2021/12/13 04:54:50;;;;;;;3.67;2.53;;;;;;;;;;5053030;28;20044;-75
2021/12/13 04:57:19;;;;;;;2.85;2.28;;;;;;;;;;5034934;28;20037;-75
2021/12/13 04:59:50;;;;;;;3.55;2.30;;;;;;;;;;5034823;28;20045;-79
2021/12/13 05:02:19;;;;;;;6.10;2.65;;;;;;;;;;5049563;28;20471;-79
2021/12/13 05:04:50;;;;;;;4.72;2.45;;;;;;;;;;5031477;28;20048;-78
2021/12/13 05:07:18;;;;;;;4.50;2.28;;;;;;;;;;5034460;28;20571;-78
2021/12/13 05:09:48;;;;;;;4.80;2.38;;;;;;;;;;5052866;28;20049;-75
2021/12/13 05:12:21;;;;;;;2.85;2.17;;;;;;;;;;5056278;28;20118;-75
2021/12/13 05:14:54;;;;;;;6.55;2.78;;;;;;;;;;5039137;28;20103;-75
2021/12/13 05:17:28;;;;;;;4.75;2.33;;;;;;;;;;5056310;28;20564;-75
2021/12/13 05:19:59;;;;;;;3.83;2.60;;;;;;;;;;5038163;28;20128;-78
2021/12/13 05:22:28;;;;;;;4.25;2.50;;;;;;;;;;5038608;28;20519;-79
2021/12/13 05:25:00;;;;;;;3.33;2.13;;;;;;;;;;5056377;28;20048;-79
2021/12/13 05:27:32;;;;;;;6.38;2.40;;;;;;;;;;5022356;28;20076;-79
2021/12/13 05:30:12;;;;;;;4.10;2.58;;;;;;;;;;5038227;28;20048;-77
2021/12/13 05:32:42;;;;;;;6.95;2.55;;;;;;;;;;5038276;28;20091;-75
2021/12/13 05:35:16;;;;;;;2.72;2.47;;;;;;;;;;5038377;28;20099;-75
2021/12/13 05:37:56;;;;;;;5.57;2.70;;;;;;;;;;5056025;28;20037;-76
2021/12/13 05:40:36;;;;;;;4.50;2.70;;;;;;;;;;5037855;28;20475;-75
2021/12/13 05:43:18;;;;;;;3.45;2.45;;;;;;;;;;5055684;28;20053;-75
2021/12/13 05:46:08;;;;;;;2.92;2.50;;;;;;;;;;5037822;28;20433;-78
2021/12/13 05:48:38;;;;;;;5.90;2.80;;;;;;;;;;5037929;28;20049;-79
2021/12/13 05:51:19;;;;;;;4.80;3.67;;;;;;;;;;5050197;28;20412;-75
2021/12/13 05:53:52;;;;;;;6.20;3.47;;;;;;;;;;5035654;28;20053;-75
2021/12/13 05:56:21;;;;;;;4.15;3.00;;;;;;;;;;5037329;28;20069;-78
2021/12/13 05:59:12;;;;;;;7.38;3.30;;;;;;;;;;5037708;28;20049;-78
2021/12/13 06:01:54;;;;;;;6.65;3.10;;;;;;;;;;5028096;28;20063;-78
2021/12/13 06:04:43;;;;;;;4.53;3.25;;;;;;;;;;5037753;28;20473;-79
2021/12/13 06:07:14;;;;;;;5.85;3.20;;;;;;;;;;5037237;28;20493;-75
2021/12/13 06:09:45;;;;;;;5.80;2.85;;;;;;;;;;5038015;28;20136;-77
2021/12/13 06:12:24;;;;;;;4.35;2.92;;;;;;;;;;5020714;28;20048;-78
2021/12/13 06:14:52;;;;;;;8.57;3.00;;;;;;;;;;5053885;28;20370;-73
2021/12/13 06:17:40;;;;;;;4.47;2.80;;;;;;;;;;5054931;28;20041;-73
2021/12/13 06:20:10;;;;;;;5.15;3.10;;;;;;;;;;5036937;28;20044;-76
2021/12/13 06:22:37;;;;;;;4.90;3.05;;;;;;;;;;5036326;28;20075;-75
2021/12/13 06:25:09;;;;;;;8.57;3.30;;;;;;;;;;5054633;28;20044;-76
2021/12/13 06:27:46;;;;;;;5.35;3.15;;;;;;;;;;5054396;28;20037;-76
2021/12/13 06:30:16;;;;;;;11.57;3.08;;;;;;;;;;5051197;28;20037;-73
2021/12/13 06:32:53;;;;;;;11.18;3.30;;;;;;;;;;5003348;28;20048;-76
2021/12/13 06:35:30;;;;;;;10.18;3.25;;;;;;;;;;5033361;28;20045;-73
2021/12/13 06:38:00;;;;;;;6.18;2.95;;;;;;;;;;5016937;28;20152;-74
2021/12/13 06:40:29;;;;;;;9.93;3.65;;;;;;;;;;5034902;28;20532;-76
2021/12/13 06:43:02;;;;;;;12.07;2.70;;;;;;;;;;5034512;28;20051;-75
2021/12/13 06:45:34;;;;;;;10.30;4.93;;;;;;;;;;5032743;28;20056;-73
2021/12/13 06:48:05;;;;;;;13.38;4.97;;;;;;;;;;5033363;28;20124;-74
2021/12/13 06:50:34;;;;;;;13.45;5.95;;;;;;;;;;5021787;28;20557;-73
2021/12/13 06:53:10;;;;;;;11.45;5.40;;;;;;;;;;5014369;28;20045;-73
2021/12/13 06:55:39;;;;;;;29.42;6.35;;;;;;;;;;5014040;28;20121;-74
2021/12/13 06:58:18;;;;;;;17.35;5.20;;;;;;;;;;5012562;28;20413;-75
2021/12/13 07:00:46;;;;;;;26.05;6.85;;;;;;;;;;5012692;28;20053;-75
2021/12/13 07:03:22;;;;;;;65.32;12.60;;;;;;;;;;5014098;28;20405;-75
2021/12/13 07:05:52;;;;;;;29.95;6.97;;;;;;;;;;5013126;28;20149;-74
2021/12/13 07:08:21;;;;;;;12.30;5.25;;;;;;;;;;4996353;28;20056;-75
2021/12/13 07:10:57;;;;;;;7.97;3.85;;;;;;;;;;5014209;28;20045;-76
2021/12/13 07:13:33;;;;;;;6.25;3.50;;;;;;;;;;5014312;28;20084;-74
2021/12/13 07:16:01;;;;;;;8.88;3.75;;;;;;;;;;5013149;28;20369;-80
2021/12/13 07:18:50;;;;;;;7.00;3.50;;;;;;;;;;5012485;28;20127;-78
2021/12/13 07:21:37;;;;;;;6.03;3.40;;;;;;;;;;5012304;28;20042;-77
2021/12/13 07:24:10;;;;;;;12.15;4.07;;;;;;;;;;5013918;28;20557;-77
2021/12/13 07:26:44;;;;;;;18.67;4.78;;;;;;;;;;5012890;28;20042;-77
2021/12/13 07:29:12;;;;;;;7.50;3.20;;;;;;;;;;5013867;28;20046;-76
2021/12/13 07:31:41;;;;;;;8.57;3.22;;;;;;;;;;5013773;28;20034;-77
2021/12/13 07:34:11;;;;;;;7.13;2.30;;;;;;;;;;5012841;28;20042;-80
2021/12/13 07:36:38;;;;;;;11.05;5.28;;;;;;;;;;5014103;28;20052;-77
2021/12/13 07:39:14;;;;;;;9.65;3.00;;;;;;;;;;5012339;28;20129;-79
2021/12/13 07:41:47;;;;;;;7.53;2.38;;;;;;;;;;5012859;28;20045;-77
2021/12/13 07:44:33;;;;;;;8.35;4.10;;;;;;;;;;5012039;28;20049;-79
2021/12/13 07:47:12;;;;;;;3.33;2.70;;;;;;;;;;5012536;28;20049;-77
2021/12/13 07:49:45;;;;;;;4.55;1.83;;;;;;;;;;5013610;28;20085;-76
2021/12/13 07:52:24;;;;;;;5.57;1.60;;;;;;;;;;5012609;28;20144;-79
2021/12/13 07:54:51;;;;;;;3.03;2.20;;;;;;;;;;5013571;28;20034;-80
2021/12/13 07:57:26;;;;;;;3.83;2.22;;;;;;;;;;5011812;28;20038;-79
2021/12/13 07:59:54;;;;;;;8.07;2.20;;;;;;;;;;5013485;28;20461;-78
2021/12/13 08:02:33;;;;;;;4.60;2.28;;;;;;;;;;4995756;28;20034;-79
2021/12/13 08:05:09;;;;;;;2.50;1.50;;;;;;;;;;5011912;28;20096;-77
2021/12/13 08:07:51;;;;;;;4.60;1.77;;;;;;;;;;5011659;28;20096;-79
2021/12/13 08:10:33;;;;;;;6.53;3.00;;;;;;;;;;5012168;28;20084;-76
2021/12/13 08:13:06;;;;;;;5.45;3.28;;;;;;;;;;5012227;28;20401;-78
2021/12/13 08:15:40;;;;;;;3.38;1.92;;;;;;;;;;5013573;28;20441;-78
2021/12/13 08:18:20;;;;;;;6.28;2.30;;;;;;;;;;5012811;28;20466;-79
2021/12/13 08:20:49;;;;;;;3.28;1.95;;;;;;;;;;5012725;28;20561;-80
2021/12/13 08:23:18;;;;;;;9.23;5.20;;;;;;;;;;5013108;28;20056;-76
2021/12/13 08:25:47;;;;;;;6.72;3.17;;;;;;;;;;5013025;28;20045;-78
2021/12/13 08:28:18;;;;;;;5.75;2.20;;;;;;;;;;5012256;28;20050;-76
2021/12/13 08:30:48;;;;;;;6.53;3.83;;;;;;;;;;4995120;28;20050;-76
2021/12/13 08:33:31;;;;;;;2.15;1.55;;;;;;;;;;5013168;28;20048;-76
2021/12/13 08:36:04;;;;;;;4.00;1.65;;;;;;;;;;5012977;28;20044;-79
2021/12/13 08:38:35;;;;;;;4.00;2.15;;;;;;;;;;5011718;28;20124;-78
2021/12/13 08:41:27;;;;;;;5.72;2.10;;;;;;;;;;5011338;28;20373;-80
2021/12/13 08:44:15;;;;;;;2.85;1.80;;;;;;;;;;4978012;28;20046;-79
2021/12/13 08:47:03;;;;;;;6.70;1.48;;;;;;;;;;5015668;28;20069;-79
2021/12/13 08:49:41;;;;;;;6.03;2.00;;;;;;;;;;4999367;28;20085;-76
2021/12/13 08:52:12;;;;;;;3.30;1.80;;;;;;;;;;5015610;28;20038;-77
2021/12/13 08:54:51;;;;;;;4.03;1.65;;;;;;;;;;5016716;28;20508;-76
2021/12/13 08:57:30;;;;;;;2.30;1.30;;;;;;;;;;5015815;28;20121;-80
2021/12/13 08:59:59;;;;;;;3.00;1.95;;;;;;;;;;5016614;28;20048;-76
2021/12/13 09:02:30;;;;;;;8.15;1.92;;;;;;;;;;5016551;28;20516;-79
2021/12/13 09:05:00;;;;;;;2.67;1.40;;;;;;;;;;5015160;28;20049;-80
2021/12/13 09:07:28;;;;;;;5.93;2.10;;;;;;;;;;5016208;28;20516;-78
2021/12/13 09:09:56;;;;;;;6.47;1.60;;;;;;;;;;5015066;28;20042;-76
2021/12/13 09:12:45;;;;;;;5.80;1.85;;;;;;;;;;5015058;28;20133;-79
2021/12/13 09:15:24;;;;;;;2.75;1.20;;;;;;;;;;5015228;28;20061;-76
2021/12/13 09:17:52;;;;;;;3.67;1.50;;;;;;;;;;5015285;28;20053;-79
2021/12/13 09:20:20;;;;;;;4.18;1.40;;;;;;;;;;5015009;28;20418;-76
2021/12/13 09:22:51;;;;;;;3.42;1.65;;;;;;;;;;5014923;28;20100;-76
2021/12/13 09:25:30;;;;;;;2.63;1.80;;;;;;;;;;5016017;28;20046;-79
2021/12/13 09:28:01;;;;;;;3.47;1.67;;;;;;;;;;5014837;28;20045;-76
2021/12/13 09:30:36;;;;;;;5.15;2.15;;;;;;;;;;5016260;28;20045;-76
2021/12/13 09:33:07;;;;;;;6.20;1.88;;;;;;;;;;5015936;28;20068;-77
2021/12/13 09:35:49;;;;;;;3.63;1.75;;;;;;;;;;5014851;28;20069;-79
2021/12/13 09:38:17;;;;;;;2.88;1.48;;;;;;;;;;5015911;28;20069;-80
2021/12/13 09:40:48;;;;;;;4.30;1.80;;;;;;;;;;5014969;28;20048;-76
2021/12/13 09:43:17;;;;;;;3.15;2.00;;;;;;;;;;5016036;28;20042;-79
2021/12/13 09:45:52;;;;;;;2.85;2.13;;;;;;;;;;5015393;28;20048;-76
2021/12/13 09:48:23;;;;;;;3.53;1.80;;;;;;;;;;4998227;28;20053;-78
2021/12/13 09:50:53;;;;;;;6.40;2.08;;;;;;;;;;5020666;28;20058;-79
2021/12/13 09:53:23;;;;;;;7.38;1.75;;;;;;;;;;5034147;28;20120;-78
2021/12/13 09:55:51;;;;;;;2.90;1.55;;;;;;;;;;5017320;28;20493;-79
2021/12/13 09:58:21;;;;;;;5.07;1.70;;;;;;;;;;5034251;28;20121;-78
2021/12/13 10:00:51;;;;;;;3.85;1.98;;;;;;;;;;5034311;28;20140;-75
2021/12/13 10:03:33;;;;;;;8.68;3.85;;;;;;;;;;5017651;28;20072;-78
2021/12/13 10:06:03;;;;;;;3.55;1.55;;;;;;;;;;5017654;28;20120;-78
2021/12/13 10:09:00;;;;;;;6.50;1.67;;;;;;;;;;5034916;28;20050;-77
2021/12/13 10:11:50;;;;;;;3.38;1.40;;;;;;;;;;5008792;28;20065;-75
2021/12/13 10:14:19;;;;;;;5.70;3.50;;;;;;;;;;5035138;28;20037;-77
2021/12/13 10:16:48;;;;;;;3.47;1.60;;;;;;;;;;5017271;28;20520;-78
2021/12/13 10:19:26;;;;;;;2.45;1.70;;;;;;;;;;5035185;28;20519;-76
2021/12/13 10:21:54;;;;;;;3.33;1.90;;;;;;;;;;5033064;28;20129;-79
2021/12/13 10:24:31;;;;;;;6.88;1.92;;;;;;;;;;5034903;28;20491;-78
2021/12/13 10:27:01;;;;;;;3.80;1.60;;;;;;;;;;5033616;28;20053;-76
2021/12/13 10:29:41;;;;;;;2.95;1.85;;;;;;;;;;5034906;28;20081;-78
2021/12/13 10:32:11;;;;;;;5.38;1.95;;;;;;;;;;5034458;28;20041;-79
2021/12/13 10:34:42;;;;;;;4.28;1.73;;;;;;;;;;5033797;28;20045;-76
2021/12/13 10:37:18;;;;;;;81.25;9.13;;;;;;;;;;5033678;28;20060;-75
2021/12/13 10:39:52;;;;;;;5.07;1.80;;;;;;;;;;5033280;28;20116;-77
2021/12/13 10:42:25;;;;;;;10.07;2.55;;;;;;;;;;5034899;28;20061;-78
2021/12/13 10:44:56;;;;;;;5.85;2.00;;;;;;;;;;5034288;28;20045;-75
2021/12/13 10:47:30;;;;;;;3.58;1.98;;;;;;;;;;5034680;28;20128;-75
2021/12/13 10:49:58;;;;;;;5.35;1.95;;;;;;;;;;5112274;23;20084;-74
2021/12/13 10:52:28;;;;;;;8.02;1.80;;;;;;;;;;5034414;28;20044;-75
2021/12/13 10:54:59;;;;;;;2.97;1.48;;;;;;;;;;5015429;28;20057;-75
2021/12/13 10:57:35;;;;;;;4.70;1.63;;;;;;;;;;5013369;28;20070;-74
2021/12/13 11:00:09;;;;;;;7.38;1.70;;;;;;;;;;5014190;28;20042;-74
2021/12/13 11:02:38;;;;;;;11.80;2.42;;;;;;;;;;5014566;28;20124;-74
2021/12/13 11:05:06;;;;;;;2.17;1.42;;;;;;;;;;5014611;28;20454;-74
2021/12/13 11:07:34;;;;;;;2.35;1.40;;;;;;;;;;5014513;28;20092;-72
2021/12/13 11:10:05;;;;;;;3.60;1.60;;;;;;;;;;5014543;28;20050;-74
2021/12/13 11:12:34;;;;;;;15.90;3.17;;;;;;;;;;5014302;28;20046;-73
2021/12/13 11:15:05;;;;;;;6.53;1.90;;;;;;;;;;5014393;28;20069;-72
2021/12/13 11:17:35;;;;;;;3.60;1.50;;;;;;;;;;5013258;28;20078;-74
2021/12/13 11:20:08;;;;;;;8.93;2.10;;;;;;;;;;5014134;28;20100;-75
2021/12/13 11:22:36;;;;;;;4.88;2.05;;;;;;;;;;5012959;28;20084;-75
2021/12/13 11:25:06;;;;;;;4.20;1.50;;;;;;;;;;5012644;28;20037;-72
2021/12/13 11:27:35;;;;;;;8.57;2.17;;;;;;;;;;5014029;28;20042;-74
2021/12/13 11:30:06;;;;;;;5.47;2.17;;;;;;;;;;5013937;28;20042;-74
2021/12/13 11:32:37;;;;;;;4.13;1.80;;;;;;;;;;5014110;28;20037;-76
2021/12/13 11:35:09;;;;;;;2.88;1.60;;;;;;;;;;5014158;28;20074;-74
2021/12/13 11:37:56;;;;;;;2.10;1.33;;;;;;;;;;5014094;28;20069;-74
2021/12/13 11:40:27;;;;;;;4.03;1.50;;;;;;;;;;5013882;28;20066;-75
2021/12/13 11:43:03;;;;;;;3.42;1.48;;;;;;;;;;5012666;28;20042;-74
2021/12/13 11:45:49;;;;;;;4.85;1.60;;;;;;;;;;5012392;28;20057;-75
2021/12/13 11:48:36;;;;;;;3.95;1.27;;;;;;;;;;5013853;28;20042;-74
2021/12/13 11:51:23;;;;;;;2.97;1.48;;;;;;;;;;5013927;28;20058;-73
2021/12/13 11:54:10;;;;;;;2.30;1.35;;;;;;;;;;5013611;28;20049;-72
2021/12/13 11:56:46;;;;;;;4.22;1.77;;;;;;;;;;5013923;28;20129;-75
2021/12/13 11:59:14;;;;;;;7.68;2.47;;;;;;;;;;5013598;28;20069;-73
2021/12/13 12:02:01;;;;;;;3.83;1.60;;;;;;;;;;5013157;28;20050;-76
2021/12/13 12:04:32;;;;;;;4.80;1.50;;;;;;;;;;5013186;28;20049;-76
2021/12/13 12:07:09;;;;;;;5.30;1.77;;;;;;;;;;5028390;28;20045;-75
2021/12/13 12:09:56;;;;;;;4.38;1.50;;;;;;;;;;5013369;28;20575;-73
2021/12/13 12:12:24;;;;;;;2.08;1.58;;;;;;;;;;5013069;28;20076;-74
2021/12/13 12:15:00;;;;;;;6.32;1.80;;;;;;;;;;5011827;28;20109;-76
2021/12/13 12:17:29;;;;;;;12.27;2.38;;;;;;;;;;5013047;28;20064;-73
2021/12/13 12:19:58;;;;;;;3.67;2.03;;;;;;;;;;5012554;28;20961;-74
2021/12/13 12:22:49;;;;;;;36.05;5.25;;;;;;;;;;5013034;28;20050;-76
2021/12/13 12:25:18;;;;;;;4.10;1.90;;;;;;;;;;5002449;28;20054;-76
2021/12/13 12:27:45;;;;;;;2.63;1.50;;;;;;;;;;5013428;28;20210;-74
2021/12/13 12:30:20;;;;;;;2.88;1.48;;;;;;;;;;5011960;28;20409;-73
2021/12/13 12:32:51;;;;;;;4.68;1.48;;;;;;;;;;5012885;28;20045;-76
2021/12/13 12:35:24;;;;;;;9.68;2.22;;;;;;;;;;5012873;28;20034;-75
2021/12/13 12:37:52;;;;;;;2.88;1.60;;;;;;;;;;5012321;28;20213;-73
2021/12/13 12:40:27;;;;;;;6.25;1.70;;;;;;;;;;5012790;28;20069;-74
2021/12/13 12:42:57;;;;;;;3.47;1.50;;;;;;;;;;5013230;28;20117;-73
2021/12/13 12:45:42;;;;;;;3.42;1.95;;;;;;;;;;5012412;28;20049;-74
2021/12/13 12:48:13;;;;;;;2.97;1.60;;;;;;;;;;5008893;28;20111;-76
2021/12/13 12:50:45;;;;;;;5.82;2.70;;;;;;;;;;5012210;28;20056;-74
2021/12/13 12:53:18;;;;;;;5.25;1.70;;;;;;;;;;5009483;28;20425;-74
2021/12/13 12:55:48;;;;;;;3.40;1.42;;;;;;;;;;5012550;28;20042;-75
2021/12/13 12:58:20;;;;;;;5.32;1.55;;;;;;;;;;5011676;28;20037;-74
2021/12/13 13:00:49;;;;;;;3.92;1.73;;;;;;;;;;5011974;28;20394;-75
2021/12/13 13:03:24;;;;;;;4.68;1.90;;;;;;;;;;5012620;28;20046;-75
2021/12/13 13:05:51;;;;;;;4.10;1.63;;;;;;;;;;5012072;28;20044;-74
2021/12/13 13:08:32;;;;;;;1.65;1.30;;;;;;;;;;5011009;28;20042;-74
2021/12/13 13:11:26;;;;;;;3.53;1.35;;;;;;;;;;5009938;28;20068;-74
2021/12/13 13:13:48;;;;;;;2.30;1.38;;;;;;;;;;5008536;28;20050;-74
2021/12/13 13:16:20;;;;;;;4.70;1.50;;;;;;;;;;5010071;28;20042;-74
2021/12/13 13:18:48;;;;;;;2.22;1.63;;;;;;;;;;5011962;28;20400;-76
2021/12/13 13:21:18;;;;;;;2.22;1.33;;;;;;;;;;5011736;28;20030;-74
2021/12/13 13:23:52;;;;;;;4.32;1.55;;;;;;;;;;4992808;28;20045;-76
2021/12/13 13:26:22;;;;;;;4.88;1.40;;;;;;;;;;5007719;28;20041;-76
2021/12/13 13:28:55;;;;;;;4.22;1.60;;;;;;;;;;5007994;28;20034;-74
2021/12/13 13:31:22;;;;;;;4.07;2.38;;;;;;;;;;5009657;28;20121;-75
2021/12/13 13:33:56;;;;;;;3.95;1.95;;;;;;;;;;5013578;28;20033;-74
2021/12/13 13:36:27;;;;;;;3.45;1.23;;;;;;;;;;5010264;28;20041;-74
2021/12/13 13:39:09;;;;;;;3.40;1.50;;;;;;;;;;5024552;28;20039;-76
2021/12/13 13:41:40;;;;;;;3.10;1.35;;;;;;;;;;5014968;28;20434;-75
2021/12/13 13:44:13;;;;;;;3.55;1.50;;;;;;;;;;5010540;28;20041;-74
2021/12/13 13:46:44;;;;;;;4.85;1.60;;;;;;;;;;5013811;28;20052;-76
2021/12/13 13:49:19;;;;;;;2.38;1.40;;;;;;;;;;5008825;28;20058;-74
2021/12/13 13:51:49;;;;;;;3.35;1.58;;;;;;;;;;5007123;28;20050;-77
2021/12/13 13:54:19;;;;;;;3.72;1.10;;;;;;;;;;5011140;28;20044;-75
2021/12/13 13:56:48;;;;;;;6.53;1.70;;;;;;;;;;5013190;28;20056;-75
2021/12/13 13:59:19;;;;;;;6.13;1.75;;;;;;;;;;5013829;28;20030;-74
2021/12/13 14:01:47;;;;;;;4.57;1.67;;;;;;;;;;5031943;28;20076;-77
2021/12/13 14:04:17;;;;;;;5.18;1.70;;;;;;;;;;5016063;28;20046;-77
2021/12/13 14:06:48;;;;;;;3.72;1.80;;;;;;;;;;5032020;28;20048;-74
2021/12/13 14:09:22;;;;;;;3.85;1.40;;;;;;;;;;5029722;28;20076;-78
2021/12/13 14:12:02;;;;;;;5.82;1.80;;;;;;;;;;5015617;28;20049;-73
2021/12/13 14:15:02;;;;;;;2.85;1.58;;;;;;;;;;5005181;28;20059;-74
2021/12/13 14:17:34;;;;;;;4.60;2.03;;;;;;;;;;5014088;28;20046;-74
2021/12/13 14:20:15;;;;;;;5.70;2.63;;;;;;;;;;5033698;28;20043;-73
2021/12/13 14:22:42;;;;;;;3.35;1.88;;;;;;;;;;5017298;28;20133;-73
2021/12/13 14:25:10;;;;;;;3.35;1.98;;;;;;;;;;5034355;28;20037;-72
2021/12/13 14:27:46;;;;;;;3.10;1.40;;;;;;;;;;5034306;28;20046;-74
2021/12/13 14:30:30;;;;;;;4.22;1.58;;;;;;;;;;5034278;28;20072;-72
2021/12/13 14:32:58;;;;;;;4.43;1.60;;;;;;;;;;5034401;28;20049;-75
2021/12/13 14:35:33;;;;;;;7.22;1.60;;;;;;;;;;5033306;28;20041;-75
2021/12/13 14:38:13;;;;;;;4.05;1.80;;;;;;;;;;5016157;28;20041;-74
2021/12/13 14:40:45;;;;;;;5.00;1.50;;;;;;;;;;5033944;28;20063;-74
2021/12/13 14:43:16;;;;;;;3.33;1.27;;;;;;;;;;5033954;28;20042;-75
2021/12/13 14:45:44;;;;;;;3.00;1.55;;;;;;;;;;5006881;28;20052;-74
2021/12/13 14:48:16;;;;;;;3.53;1.73;;;;;;;;;;5014300;28;20041;-76
2021/12/13 14:50:49;;;;;;;4.18;1.80;;;;;;;;;;5014404;28;20060;-74
2021/12/13 14:53:24;;;;;;;3.63;1.50;;;;;;;;;;5014363;28;20054;-74
2021/12/13 14:55:56;;;;;;;3.78;1.48;;;;;;;;;;5014248;28;20515;-74
2021/12/13 14:58:32;;;;;;;5.53;1.75;;;;;;;;;;5014145;28;20501;-74
2021/12/13 15:01:02;;;;;;;5.43;1.20;;;;;;;;;;4980630;28;20046;-74
2021/12/13 15:03:32;;;;;;;1.80;1.23;;;;;;;;;;5014517;28;20409;-76
2021/12/13 15:06:05;;;;;;;5.55;1.67;;;;;;;;;;5014470;28;20053;-77
2021/12/13 15:08:33;;;;;;;3.85;1.35;;;;;;;;;;5014367;28;20557;-74
2021/12/13 15:11:06;;;;;;;6.68;1.65;;;;;;;;;;5014137;28;20050;-74
2021/12/13 15:13:41;;;;;;;7.40;1.90;;;;;;;;;;5014028;28;20049;-77
2021/12/13 15:16:13;;;;;;;6.53;1.73;;;;;;;;;;5014379;28;20034;-74
2021/12/13 15:18:47;;;;;;;2.22;1.27;;;;;;;;;;4981575;28;20045;-74
2021/12/13 15:21:18;;;;;;;2.70;1.50;;;;;;;;;;5013616;28;20041;-74
2021/12/13 15:23:48;;;;;;;2.53;1.55;;;;;;;;;;5033722;28;20033;-77
2021/12/13 15:26:27;;;;;;;3.47;1.90;;;;;;;;;;5012796;28;20065;-74
2021/12/13 15:29:00;;;;;;;1.98;1.20;;;;;;;;;;5033631;28;20049;-73